Time,TemperatureF,DewpointF,PressureIn,WindDirection,WindDirectionDegrees,WindSpeedMPH,WindSpeedGustMPH,Humidity,HourlyPrecipIn,Conditions,Clouds,dailyrainin,SoftwareType,DateUTC
2013-05-25 00:00:00,45.7,43.5,29.78,WNW,292,1.0,3.0,92,0.00,,CLR,0.00,VWS V14.01,2013-05-25 04:00:00,
2013-05-25 00:10:00,45.7,43.5,29.78,WNW,292,2.0,6.0,92,0.00,,CLR,0.00,VWS V14.01,2013-05-25 04:10:00,
2013-05-25 00:20:00,45.5,43.6,29.78,NW,315,2.0,10.0,93,0.00,,CLR,0.00,VWS V14.01,2013-05-25 04:20:00,
2013-05-25 00:30:00,45.5,43.6,29.76,NW,315,1.0,3.0,93,0.00,,CLR,0.00,VWS V14.01,2013-05-25 04:30:00,
2013-05-25 00:40:00,45.5,43.6,29.76,WNW,292,1.0,3.0,93,0.00,,CLR,0.00,VWS V14.01,2013-05-25 04:40:00,
2013-05-25 00:50:00,45.5,43.6,29.76,NNE,22,1.0,2.0,93,0.00,,CLR,0.00,VWS V14.01,2013-05-25 04:50:00,
2013-05-25 01:00:00,45.5,43.6,29.76,North,0,3.0,10.0,93,0.00,,CLR,0.00,VWS V14.01,2013-05-25 05:00:00,
2013-05-25 01:10:00,45.7,43.8,29.76,North,0,1.0,3.0,93,0.00,,CLR,0.00,VWS V14.01,2013-05-25 05:10:00,
2013-05-25 01:20:00,45.7,43.8,29.75,North,0,1.0,6.0,93,0.00,,CLR,0.00,VWS V14.01,2013-05-25 05:20:00,
2013-05-25 01:30:00,45.7,43.8,29.75,NW,315,1.0,3.0,93,0.00,,CLR,0.00,VWS V14.01,2013-05-25 05:30:00,
2013-05-25 01:40:00,45.8,43.9,29.75,NNW,338,1.0,10.0,93,0.00,,CLR,0.00,VWS V14.01,2013-05-25 05:40:00,
2013-05-25 01:50:00,45.8,43.9,29.74,North,0,0.0,2.0,93,0.00,,CLR,0.00,VWS V14.01,2013-05-25 05:50:00,
2013-05-25 02:00:00,45.8,44.2,29.72,NW,315,1.0,6.0,94,0.00,,CLR,0.00,VWS V14.01,2013-05-25 06:00:00,
2013-05-25 02:10:00,46.0,44.4,29.72,North,0,2.0,8.0,94,0.00,,CLR,0.00,VWS V14.01,2013-05-25 06:10:00,
2013-05-25 02:20:00,46.0,44.4,29.71,NNW,338,3.0,6.0,94,0.00,,CLR,0.00,VWS V14.01,2013-05-25 06:20:00,
2013-05-25 02:30:00,46.0,44.4,29.72,North,0,1.0,3.0,94,0.00,,CLR,0.00,VWS V14.01,2013-05-25 06:30:00,
2013-05-25 02:40:00,46.1,44.5,29.72,NW,315,3.0,6.0,94,0.00,,CLR,0.00,VWS V14.01,2013-05-25 06:40:00,
2013-05-25 02:50:00,46.1,44.5,29.72,North,0,3.0,12.0,94,0.00,,CLR,0.00,VWS V14.01,2013-05-25 06:50:00,
2013-05-25 03:00:00,46.1,44.5,29.71,North,0,2.0,10.0,94,0.00,,CLR,0.00,VWS V14.01,2013-05-25 07:00:00,
2013-05-25 03:10:00,46.1,44.5,29.71,NW,315,1.0,5.0,94,0.00,,CLR,0.00,VWS V14.01,2013-05-25 07:10:00,
2013-05-25 03:20:00,46.1,44.5,29.72,WNW,292,0.0,3.0,94,0.00,,CLR,0.00,VWS V14.01,2013-05-25 07:20:00,
2013-05-25 03:30:00,46.1,44.5,29.72,North,0,1.0,5.0,94,0.00,,CLR,0.00,VWS V14.01,2013-05-25 07:30:00,
2013-05-25 03:40:00,46.1,44.5,29.72,West,270,1.0,3.0,94,0.00,,CLR,0.00,VWS V14.01,2013-05-25 07:40:00,
2013-05-25 03:50:00,46.1,44.5,29.72,NW,315,1.0,3.0,94,0.00,,CLR,0.00,VWS V14.01,2013-05-25 07:50:00,
2013-05-25 04:00:00,46.1,44.5,29.72,North,0,0.0,1.0,94,0.00,,CLR,0.00,VWS V14.01,2013-05-25 08:00:00,
2013-05-25 04:10:00,46.1,44.5,29.72,WSW,248,2.0,7.0,94,0.00,,CLR,0.00,VWS V14.01,2013-05-25 08:10:00,
2013-05-25 04:20:00,46.0,44.4,29.71,NW,315,2.0,3.0,94,0.00,,CLR,0.00,VWS V14.01,2013-05-25 08:20:00,
2013-05-25 04:30:00,46.0,44.4,29.72,North,0,1.0,3.0,94,0.00,,CLR,0.00,VWS V14.01,2013-05-25 08:30:00,
2013-05-25 04:40:00,46.0,44.4,29.72,North,0,1.0,6.0,94,0.00,,CLR,0.00,VWS V14.01,2013-05-25 08:40:00,
2013-05-25 04:50:00,46.0,44.4,29.72,WNW,292,1.0,5.0,94,0.00,,CLR,0.00,VWS V14.01,2013-05-25 08:50:00,
2013-05-25 05:00:00,45.8,44.2,29.72,WNW,292,2.0,5.0,94,0.00,,CLR,0.00,VWS V14.01,2013-05-25 09:00:00,
2013-05-25 05:10:00,45.8,44.2,29.72,NNE,22,0.0,2.0,94,0.01,,CLR,0.01,VWS V14.01,2013-05-25 09:10:00,
2013-05-25 05:20:00,45.8,44.2,29.72,North,0,1.0,3.0,94,0.01,,CLR,0.01,VWS V14.01,2013-05-25 09:20:00,
2013-05-25 05:30:00,45.8,44.5,29.72,NNW,338,2.0,6.0,95,0.01,,CLR,0.01,VWS V14.01,2013-05-25 09:30:00,
2013-05-25 05:40:00,45.8,44.5,29.72,WSW,248,0.0,3.0,95,0.01,,CLR,0.01,VWS V14.01,2013-05-25 09:40:00,
2013-05-25 05:50:00,46.0,44.7,29.72,North,0,1.0,7.0,95,0.01,,CLR,0.01,VWS V14.01,2013-05-25 09:50:00,
2013-05-25 06:00:00,45.8,44.5,29.71,NW,315,1.0,5.0,95,0.01,,CLR,0.01,VWS V14.01,2013-05-25 10:00:00,
2013-05-25 06:10:00,45.8,44.5,29.71,NNW,338,2.0,10.0,95,0.01,,CLR,0.01,VWS V14.01,2013-05-25 10:10:00,
2013-05-25 06:20:00,45.8,44.5,29.71,NW,315,1.0,5.0,95,0.00,,CLR,0.01,VWS V14.01,2013-05-25 10:20:00,
2013-05-25 06:30:00,45.8,44.5,29.72,WNW,292,1.0,3.0,95,0.00,,CLR,0.01,VWS V14.01,2013-05-25 10:30:00,
2013-05-25 06:40:00,45.8,44.5,29.72,West,270,2.0,7.0,95,0.00,,CLR,0.01,VWS V14.01,2013-05-25 10:40:00,
2013-05-25 06:50:00,45.8,44.5,29.72,NNE,22,1.0,3.0,95,0.00,,CLR,0.01,VWS V14.01,2013-05-25 10:50:00,
2013-05-25 07:00:00,45.7,44.3,29.72,North,0,2.0,6.0,95,0.00,,CLR,0.01,VWS V14.01,2013-05-25 11:00:00,
2013-05-25 07:10:00,45.8,44.5,29.72,WNW,292,1.0,6.0,95,0.00,,CLR,0.01,VWS V14.01,2013-05-25 11:10:00,
2013-05-25 07:20:00,45.7,44.3,29.72,WNW,292,1.0,7.0,95,0.00,,CLR,0.01,VWS V14.01,2013-05-25 11:20:00,
2013-05-25 07:30:00,45.7,44.3,29.72,NNW,338,2.0,7.0,95,0.00,,CLR,0.01,VWS V14.01,2013-05-25 11:30:00,
2013-05-25 07:40:00,45.7,44.3,29.72,WSW,248,2.0,6.0,95,0.00,,CLR,0.01,VWS V14.01,2013-05-25 11:40:00,
2013-05-25 07:50:00,45.8,44.5,29.72,WSW,248,2.0,3.0,95,0.00,,CLR,0.01,VWS V14.01,2013-05-25 11:50:00,
2013-05-25 08:00:00,46.0,44.7,29.72,West,270,1.0,3.0,95,0.00,,CLR,0.01,VWS V14.01,2013-05-25 12:00:00,
2013-05-25 08:10:00,46.0,44.7,29.72,WSW,248,3.0,5.0,95,0.00,,CLR,0.01,VWS V14.01,2013-05-25 12:10:00,
2013-05-25 08:20:00,46.0,44.7,29.72,WNW,292,1.0,5.0,95,0.00,,CLR,0.01,VWS V14.01,2013-05-25 12:20:00,
2013-05-25 08:30:00,46.0,44.7,29.73,WNW,292,1.0,5.0,95,0.00,,CLR,0.01,VWS V14.01,2013-05-25 12:30:00,
2013-05-25 08:40:00,46.0,44.7,29.73,NW,315,0.0,3.0,95,0.00,,CLR,0.01,VWS V14.01,2013-05-25 12:40:00,
2013-05-25 08:50:00,46.0,44.7,29.72,North,0,2.0,5.0,95,0.00,,CLR,0.01,VWS V14.01,2013-05-25 12:50:00,
2013-05-25 09:00:00,46.0,44.7,29.72,WNW,292,1.0,5.0,95,0.00,,CLR,0.01,VWS V14.01,2013-05-25 13:00:00,
2013-05-25 09:10:00,46.0,44.7,29.72,West,270,1.0,4.0,95,0.00,,CLR,0.01,VWS V14.01,2013-05-25 13:10:00,
2013-05-25 09:20:00,46.1,44.8,29.72,West,270,2.0,6.0,95,0.00,,CLR,0.01,VWS V14.01,2013-05-25 13:20:00,
2013-05-25 09:30:00,46.1,44.8,29.72,North,0,3.0,7.0,95,0.00,,CLR,0.01,VWS V14.01,2013-05-25 13:30:00,
2013-05-25 09:40:00,46.2,44.8,29.72,NNE,22,2.0,5.0,95,0.00,,CLR,0.01,VWS V14.01,2013-05-25 13:40:00,
2013-05-25 09:50:00,46.2,44.8,29.72,West,270,1.0,7.0,95,0.00,,CLR,0.01,VWS V14.01,2013-05-25 13:50:00,
2013-05-25 10:00:00,46.2,44.8,29.71,North,0,1.0,8.0,95,0.00,,CLR,0.01,VWS V14.01,2013-05-25 14:00:00,
2013-05-25 10:10:00,46.4,45.0,29.71,NW,315,3.0,13.0,95,0.00,,CLR,0.01,VWS V14.01,2013-05-25 14:10:00,
2013-05-25 10:20:00,46.4,45.0,29.71,North,0,2.0,10.0,95,0.00,,CLR,0.01,VWS V14.01,2013-05-25 14:20:00,
2013-05-25 10:30:00,46.4,45.0,29.71,NNW,338,3.0,7.0,95,0.00,,CLR,0.01,VWS V14.01,2013-05-25 14:30:00,
2013-05-25 10:40:00,46.5,45.2,29.71,West,270,3.0,6.0,95,0.00,,CLR,0.01,VWS V14.01,2013-05-25 14:40:00,
2013-05-25 10:50:00,46.8,45.5,29.71,North,0,3.0,8.0,95,0.00,,CLR,0.01,VWS V14.01,2013-05-25 14:50:00,
2013-05-25 11:00:00,46.8,45.5,29.71,WNW,292,4.0,8.0,95,0.01,,CLR,0.02,VWS V14.01,2013-05-25 15:00:00,
2013-05-25 11:10:00,46.4,45.0,29.71,WNW,292,4.0,10.0,95,0.01,,CLR,0.02,VWS V14.01,2013-05-25 15:10:00,
2013-05-25 11:20:00,46.4,45.0,29.70,North,0,2.0,7.0,95,0.01,,CLR,0.02,VWS V14.01,2013-05-25 15:20:00,
2013-05-25 11:30:00,46.5,45.2,29.71,WNW,292,3.0,6.0,95,0.01,,CLR,0.02,VWS V14.01,2013-05-25 15:30:00,
2013-05-25 11:40:00,46.5,45.2,29.71,West,270,3.0,4.0,95,0.01,,CLR,0.02,VWS V14.01,2013-05-25 15:40:00,
2013-05-25 11:50:00,46.7,45.3,29.71,WNW,292,5.0,8.0,95,0.01,,CLR,0.02,VWS V14.01,2013-05-25 15:50:00,
2013-05-25 12:00:00,46.7,45.3,29.71,West,270,2.0,3.0,95,0.01,,CLR,0.02,VWS V14.01,2013-05-25 16:00:00,
2013-05-25 12:10:00,46.5,45.2,29.71,NNW,338,4.0,7.0,95,0.00,,CLR,0.02,VWS V14.01,2013-05-25 16:10:00,
2013-05-25 12:20:00,46.4,45.0,29.71,NNW,338,3.0,10.0,95,0.00,,CLR,0.02,VWS V14.01,2013-05-25 16:20:00,
2013-05-25 12:30:00,46.2,44.8,29.70,NW,315,3.0,12.0,95,0.00,,CLR,0.02,VWS V14.01,2013-05-25 16:30:00,
2013-05-25 12:40:00,46.2,44.8,29.70,NW,315,2.0,8.0,95,0.00,,CLR,0.02,VWS V14.01,2013-05-25 16:40:00,
2013-05-25 12:50:00,46.4,45.0,29.70,NNE,22,2.0,6.0,95,0.00,,CLR,0.02,VWS V14.01,2013-05-25 16:50:00,
2013-05-25 13:00:00,46.4,45.0,29.70,North,0,3.0,11.0,95,0.00,,CLR,0.02,VWS V14.01,2013-05-25 17:00:00,
2013-05-25 13:10:00,46.5,45.2,29.70,NW,315,4.0,6.0,95,0.00,,CLR,0.02,VWS V14.01,2013-05-25 17:10:00,
2013-05-25 13:20:00,46.4,45.0,29.70,West,270,2.0,5.0,95,0.00,,CLR,0.02,VWS V14.01,2013-05-25 17:20:00,
2013-05-25 13:30:00,46.4,45.0,29.70,NNW,338,4.0,13.0,95,0.00,,CLR,0.02,VWS V14.01,2013-05-25 17:30:00,
2013-05-25 13:40:00,46.5,44.9,29.70,North,0,2.0,8.0,94,0.00,,CLR,0.02,VWS V14.01,2013-05-25 17:40:00,
2013-05-25 13:50:00,46.5,44.9,29.70,North,0,4.0,10.0,94,0.00,,CLR,0.02,VWS V14.01,2013-05-25 17:50:00,
2013-05-25 14:00:00,46.5,44.9,29.71,North,0,4.0,8.0,94,0.00,,CLR,0.02,VWS V14.01,2013-05-25 18:00:00,
2013-05-25 14:10:00,46.1,44.5,29.71,WNW,292,5.0,9.0,94,0.00,,CLR,0.02,VWS V14.01,2013-05-25 18:10:00,
2013-05-25 14:20:00,46.0,44.4,29.71,WNW,292,3.0,6.0,94,0.00,,CLR,0.02,VWS V14.01,2013-05-25 18:20:00,
2013-05-25 14:30:00,45.8,44.2,29.71,NW,315,2.0,4.0,94,0.00,,CLR,0.02,VWS V14.01,2013-05-25 18:30:00,
2013-05-25 14:40:00,46.1,44.5,29.71,North,0,2.0,6.0,94,0.00,,CLR,0.02,VWS V14.01,2013-05-25 18:40:00,
2013-05-25 14:50:00,46.0,44.4,29.70,West,270,4.0,14.0,94,0.00,,CLR,0.02,VWS V14.01,2013-05-25 18:50:00,
2013-05-25 15:00:00,46.1,44.5,29.70,WNW,292,3.0,13.0,94,0.00,,CLR,0.02,VWS V14.01,2013-05-25 19:00:00,
2013-05-25 15:10:00,45.8,44.2,29.70,NW,315,4.0,11.0,94,0.00,,CLR,0.02,VWS V14.01,2013-05-25 19:10:00,
2013-05-25 15:20:00,46.0,44.1,29.71,SE,135,1.0,5.0,93,0.00,,CLR,0.02,VWS V14.01,2013-05-25 19:20:00,
2013-05-25 15:30:00,45.7,43.8,29.71,North,0,3.0,5.0,93,0.00,,CLR,0.02,VWS V14.01,2013-05-25 19:30:00,
2013-05-25 15:40:00,45.2,43.3,29.71,North,0,4.0,10.0,93,0.00,,CLR,0.02,VWS V14.01,2013-05-25 19:40:00,
2013-05-25 15:50:00,44.9,43.0,29.72,West,270,1.0,3.0,93,0.00,,CLR,0.02,VWS V14.01,2013-05-25 19:50:00,
2013-05-25 16:00:00,44.9,43.0,29.72,NW,315,2.0,11.0,93,0.00,,CLR,0.02,VWS V14.01,2013-05-25 20:00:00,
2013-05-25 16:10:00,44.8,42.9,29.72,NNW,338,4.0,14.0,93,0.00,,CLR,0.02,VWS V14.01,2013-05-25 20:10:00,
2013-05-25 16:20:00,44.5,42.6,29.72,North,0,4.0,16.0,93,0.00,,CLR,0.02,VWS V14.01,2013-05-25 20:20:00,
2013-05-25 16:30:00,44.3,42.1,29.72,North,0,4.0,12.0,92,0.00,,CLR,0.02,VWS V14.01,2013-05-25 20:30:00,
2013-05-25 16:40:00,43.8,41.6,29.72,North,0,5.0,11.0,92,0.00,,CLR,0.02,VWS V14.01,2013-05-25 20:40:00,
2013-05-25 16:50:00,43.8,41.6,29.72,North,0,4.0,8.0,92,0.00,,CLR,0.02,VWS V14.01,2013-05-25 20:50:00,
2013-05-25 17:00:00,43.8,41.6,29.72,WNW,292,3.0,5.0,92,0.00,,CLR,0.02,VWS V14.01,2013-05-25 21:00:00,
2013-05-25 17:10:00,43.9,41.7,29.72,North,0,4.0,10.0,92,0.01,,CLR,0.03,VWS V14.01,2013-05-25 21:10:00,
2013-05-25 17:20:00,43.8,41.6,29.72,NW,315,4.0,13.0,92,0.01,,CLR,0.03,VWS V14.01,2013-05-25 21:20:00,
2013-05-25 17:30:00,43.8,41.6,29.72,North,0,3.0,12.0,92,0.01,,CLR,0.03,VWS V14.01,2013-05-25 21:30:00,
2013-05-25 17:40:00,43.6,41.4,29.72,North,0,4.0,13.0,92,0.01,,CLR,0.03,VWS V14.01,2013-05-25 21:40:00,
2013-05-25 17:50:00,43.5,41.3,29.73,North,0,4.0,13.0,92,0.01,,CLR,0.03,VWS V14.01,2013-05-25 21:50:00,
2013-05-25 18:00:00,43.3,41.1,29.73,SSE,158,2.0,7.0,92,0.01,,CLR,0.03,VWS V14.01,2013-05-25 22:00:00,
2013-05-25 18:10:00,43.2,41.0,29.73,WNW,292,3.0,6.0,92,0.01,,CLR,0.03,VWS V14.01,2013-05-25 22:10:00,
2013-05-25 18:20:00,43.1,40.9,29.73,North,0,2.0,6.0,92,0.00,,CLR,0.03,VWS V14.01,2013-05-25 22:20:00,
2013-05-25 18:30:00,42.9,40.7,29.73,WNW,292,1.0,3.0,92,0.00,,CLR,0.03,VWS V14.01,2013-05-25 22:30:00,
2013-05-25 18:40:00,42.9,40.7,29.73,North,0,2.0,5.0,92,0.00,,CLR,0.03,VWS V14.01,2013-05-25 22:40:00,
2013-05-25 18:50:00,42.9,40.7,29.74,WNW,292,1.0,8.0,92,0.00,,CLR,0.03,VWS V14.01,2013-05-25 22:50:00,
2013-05-25 19:00:00,42.9,40.7,29.74,NW,315,1.0,8.0,92,0.00,,CLR,0.03,VWS V14.01,2013-05-25 23:00:00,
2013-05-25 19:10:00,42.8,40.6,29.74,North,0,2.0,11.0,92,0.00,,CLR,0.03,VWS V14.01,2013-05-25 23:10:00,
2013-05-25 19:20:00,42.8,40.6,29.74,North,0,4.0,20.0,92,0.00,,CLR,0.03,VWS V14.01,2013-05-25 23:20:00,
2013-05-25 19:30:00,42.6,40.4,29.74,WNW,292,3.0,8.0,92,0.00,,CLR,0.03,VWS V14.01,2013-05-25 23:30:00,
2013-05-25 19:40:00,42.5,40.3,29.74,NNE,22,5.0,11.0,92,0.00,,CLR,0.03,VWS V14.01,2013-05-25 23:40:00,
2013-05-25 19:50:00,42.5,40.3,29.74,WNW,292,2.0,6.0,92,0.00,,CLR,0.03,VWS V14.01,2013-05-25 23:50:00,
2013-05-25 20:00:00,42.5,40.1,29.74,North,0,3.0,8.0,91,0.00,,CLR,0.03,VWS V14.01,2013-05-26 00:00:00,
2013-05-25 20:10:00,42.5,40.1,29.74,NNE,22,4.0,8.0,91,0.00,,CLR,0.03,VWS V14.01,2013-05-26 00:10:00,
2013-05-25 20:20:00,42.3,39.9,29.75,NW,315,3.0,8.0,91,0.00,,CLR,0.03,VWS V14.01,2013-05-26 00:20:00,
2013-05-25 20:30:00,42.2,39.8,29.75,North,0,2.0,6.0,91,0.00,,CLR,0.03,VWS V14.01,2013-05-26 00:30:00,
2013-05-25 20:40:00,42.1,39.7,29.75,NW,315,1.0,3.0,91,0.00,,CLR,0.03,VWS V14.01,2013-05-26 00:40:00,
2013-05-25 20:50:00,41.9,39.5,29.75,WNW,292,3.0,6.0,91,0.00,,CLR,0.03,VWS V14.01,2013-05-26 00:50:00,
2013-05-25 21:00:00,41.9,39.2,29.75,NW,315,2.0,7.0,90,0.00,,CLR,0.03,VWS V14.01,2013-05-26 01:00:00,
2013-05-25 21:10:00,41.8,39.4,29.75,North,0,1.0,6.0,91,0.00,,CLR,0.03,VWS V14.01,2013-05-26 01:10:00,
2013-05-25 21:20:00,41.8,39.4,29.75,NW,315,2.0,7.0,91,0.00,,CLR,0.03,VWS V14.01,2013-05-26 01:20:00,
2013-05-25 21:30:00,41.6,39.2,29.75,NE,45,2.0,4.0,91,0.00,,CLR,0.03,VWS V14.01,2013-05-26 01:30:00,
2013-05-25 21:40:00,41.6,39.2,29.75,West,270,1.0,5.0,91,0.00,,CLR,0.03,VWS V14.01,2013-05-26 01:40:00,
2013-05-25 21:50:00,41.6,39.2,29.75,West,270,2.0,5.0,91,0.00,,CLR,0.03,VWS V14.01,2013-05-26 01:50:00,
2013-05-25 22:00:00,41.6,39.2,29.75,South,180,1.0,3.0,91,0.00,,CLR,0.03,VWS V14.01,2013-05-26 02:00:00,
2013-05-25 22:10:00,41.6,39.2,29.75,West,270,3.0,6.0,91,0.00,,CLR,0.03,VWS V14.01,2013-05-26 02:10:00,
2013-05-25 22:20:00,41.6,39.2,29.75,West,270,1.0,6.0,91,0.00,,CLR,0.03,VWS V14.01,2013-05-26 02:20:00,
2013-05-25 22:30:00,41.6,39.2,29.75,West,270,2.0,6.0,91,0.00,,CLR,0.03,VWS V14.01,2013-05-26 02:30:00,
2013-05-25 22:40:00,41.6,39.2,29.75,WSW,248,2.0,6.0,91,0.00,,CLR,0.03,VWS V14.01,2013-05-26 02:40:00,
2013-05-25 22:50:00,41.5,39.1,29.74,West,270,1.0,3.0,91,0.00,,CLR,0.03,VWS V14.01,2013-05-26 02:50:00,
2013-05-25 23:00:00,41.5,39.1,29.74,North,0,1.0,6.0,91,0.00,,CLR,0.03,VWS V14.01,2013-05-26 03:00:00,
2013-05-25 23:10:00,41.3,38.9,29.74,WNW,292,2.0,7.0,91,0.00,,CLR,0.03,VWS V14.01,2013-05-26 03:10:00,
2013-05-25 23:20:00,41.3,38.9,29.74,North,0,0.0,2.0,91,0.00,,CLR,0.03,VWS V14.01,2013-05-26 03:20:00,
2013-05-25 23:30:00,41.3,38.9,29.73,WSW,248,0.0,1.0,91,0.00,,CLR,0.03,VWS V14.01,2013-05-26 03:30:00,
2013-05-25 23:40:00,41.3,38.9,29.73,West,270,1.0,2.0,91,0.00,,CLR,0.03,VWS V14.01,2013-05-26 03:40:00,
2013-05-25 23:50:00,41.3,38.9,29.73,NW,315,1.0,3.0,91,0.00,,CLR,0.03,VWS V14.01,2013-05-26 03:50:00,